sensor_id;sensor_type;location;lat;lon;timestamp;pressure;altitude;pressure_sealevel;temperature;humidity
6030;BME280;3043;42.682;23.376;2023-02-16T00:00:04;96183.06;;;0.69;100.00
6030;BME280;3043;42.682;23.376;2023-02-16T00:02:30;96180.31;;;0.63;100.00
6030;BME280;3043;42.682;23.376;2023-02-16T00:04:56;96178.50;;;0.59;100.00
6030;BME280;3043;42.682;23.376;2023-02-16T00:07:21;96184.66;;;0.41;100.00
6030;BME280;3043;42.682;23.376;2023-02-16T00:09:46;96178.19;;;0.25;100.00
6030;BME280;3043;42.682;23.376;2023-02-16T00:12:18;96178.88;;;0.20;100.00
6030;BME280;3043;42.682;23.376;2023-02-16T00:15:16;96174.03;;;0.27;100.00
6030;BME280;3043;42.682;23.376;2023-02-16T00:17:42;96170.06;;;0.10;100.00
6030;BME280;3043;42.682;23.376;2023-02-16T00:20:14;96173.53;;;0.12;100.00
6030;BME280;3043;42.682;23.376;2023-02-16T00:22:40;96168.44;;;0.12;100.00
6030;BME280;3043;42.682;23.376;2023-02-16T00:25:05;96168.03;;;0.00;100.00
6030;BME280;3043;42.682;23.376;2023-02-16T00:27:32;96165.41;;;-0.02;100.00
6030;BME280;3043;42.682;23.376;2023-02-16T00:29:58;96168.53;;;0.15;100.00
6030;BME280;3043;42.682;23.376;2023-02-16T00:32:24;96164.66;;;0.01;100.00
6030;BME280;3043;42.682;23.376;2023-02-16T00:34:49;96173.72;;;-0.07;100.00
6030;BME280;3043;42.682;23.376;2023-02-16T00:37:15;96167.69;;;-0.09;100.00
6030;BME280;3043;42.682;23.376;2023-02-16T00:39:42;96174.53;;;-0.08;100.00
6030;BME280;3043;42.682;23.376;2023-02-16T00:42:22;96168.84;;;0.24;100.00
6030;BME280;3043;42.682;23.376;2023-02-16T00:44:52;96174.38;;;0.13;100.00
6030;BME280;3043;42.682;23.376;2023-02-16T00:47:21;96164.66;;;0.01;100.00
6030;BME280;3043;42.682;23.376;2023-02-16T00:49:48;96168.03;;;0.00;100.00
6030;BME280;3043;42.682;23.376;2023-02-16T00:52:37;96169.44;;;-0.08;100.00
6030;BME280;3043;42.682;23.376;2023-02-16T00:55:17;96162.41;;;0.10;100.00
6030;BME280;3043;42.682;23.376;2023-02-16T00:57:50;96170.00;;;0.09;100.00
6030;BME280;3043;42.682;23.376;2023-02-16T01:03:04;96168.03;;;0.00;100.00
6030;BME280;3043;42.682;23.376;2023-02-16T01:05:30;96161.28;;;0.02;100.00
6030;BME280;3043;42.682;23.376;2023-02-16T01:07:56;96160.66;;;-0.16;100.00
6030;BME280;3043;42.682;23.376;2023-02-16T01:10:40;96156.00;;;-0.04;100.00
6030;BME280;3043;42.682;23.376;2023-02-16T01:16:16;96152.38;;;0.15;100.00
6030;BME280;3043;42.682;23.376;2023-02-16T01:18:42;96147.44;;;-0.06;100.00
6030;BME280;3043;42.682;23.376;2023-02-16T01:21:08;96144.53;;;-0.17;100.00
6030;BME280;3043;42.682;23.376;2023-02-16T01:23:34;96145.41;;;-0.16;100.00
6030;BME280;3043;42.682;23.376;2023-02-16T01:26:00;96140.63;;;-0.07;100.00
6030;BME280;3043;42.682;23.376;2023-02-16T01:28:25;96140.41;;;-0.13;100.00
6030;BME280;3043;42.682;23.376;2023-02-16T01:30:51;96141.94;;;-0.18;100.00
6030;BME280;3043;42.682;23.376;2023-02-16T01:33:18;96138.69;;;-0.14;100.00
6030;BME280;3043;42.682;23.376;2023-02-16T01:35:44;96135.22;;;-0.16;100.00
6030;BME280;3043;42.682;23.376;2023-02-16T01:38:22;96134.03;;;-0.02;100.00
6030;BME280;3043;42.682;23.376;2023-02-16T01:40:59;96138.09;;;0.18;100.00
6030;BME280;3043;42.682;23.376;2023-02-16T01:43:45;96133.00;;;0.18;100.00
6030;BME280;3043;42.682;23.376;2023-02-16T01:46:20;96122.72;;;0.15;100.00
6030;BME280;3043;42.682;23.376;2023-02-16T01:48:49;96124.63;;;0.22;100.00
6030;BME280;3043;42.682;23.376;2023-02-16T01:51:25;96127.91;;;0.18;100.00
6030;BME280;3043;42.682;23.376;2023-02-16T01:53:54;96122.81;;;0.18;100.00
6030;BME280;3043;42.682;23.376;2023-02-16T02:00:00;96125.75;;;0.05;100.00
6030;BME280;3043;42.682;23.376;2023-02-16T02:02:28;96122.63;;;0.12;100.00
6030;BME280;3043;42.682;23.376;2023-02-16T02:05:21;96116.69;;;-0.12;100.00
6030;BME280;3043;42.682;23.376;2023-02-16T02:13:43;96128.53;;;-0.14;100.00
6030;BME280;3043;42.682;23.376;2023-02-16T02:16:06;96126.13;;;-0.10;100.00
6030;BME280;3043;42.682;23.376;2023-02-16T02:18:32;96119.75;;;-0.22;100.00
6030;BME280;3043;42.682;23.376;2023-02-16T02:24:07;96121.72;;;-0.14;100.00
6030;BME280;3043;42.682;23.376;2023-02-16T02:27:01;96126.88;;;-0.12;100.00
6030;BME280;3043;42.682;23.376;2023-02-16T02:35:01;96122.44;;;-0.43;100.00
6030;BME280;3043;42.682;23.376;2023-02-16T02:37:50;96116.97;;;-0.53;100.00
6030;BME280;3043;42.682;23.376;2023-02-16T02:45:56;96113.31;;;-0.61;100.00
6030;BME280;3043;42.682;23.376;2023-02-16T02:48:29;96123.03;;;-0.73;100.00
6030;BME280;3043;42.682;23.376;2023-02-16T02:51:01;96113.09;;;-0.67;100.00
6030;BME280;3043;42.682;23.376;2023-02-16T02:53:51;96119.56;;;-0.75;100.00
6030;BME280;3043;42.682;23.376;2023-02-16T02:56:41;96121.00;;;-0.82;100.00
6030;BME280;3043;42.682;23.376;2023-02-16T02:59:28;96123.88;;;-0.96;100.00
6030;BME280;3043;42.682;23.376;2023-02-16T03:02:13;96121.13;;;-1.02;100.00
6030;BME280;3043;42.682;23.376;2023-02-16T03:04:41;96120.97;;;-0.83;100.00
6030;BME280;3043;42.682;23.376;2023-02-16T03:07:09;96125.94;;;-0.86;100.00
6030;BME280;3043;42.682;23.376;2023-02-16T03:09:35;96119.66;;;-0.96;100.00
6030;BME280;3043;42.682;23.376;2023-02-16T03:12:02;96122.72;;;-0.82;100.00
6030;BME280;3043;42.682;23.376;2023-02-16T03:14:53;96116.09;;;-0.77;100.00
6030;BME280;3043;42.682;23.376;2023-02-16T03:17:32;96126.47;;;-0.71;100.00
6030;BME280;3043;42.682;23.376;2023-02-16T03:20:19;96116.31;;;-0.71;100.00
6030;BME280;3043;42.682;23.376;2023-02-16T03:23:04;96125.41;;;-0.54;100.00
6030;BME280;3043;42.682;23.376;2023-02-16T03:25:50;96119.34;;;-0.58;100.00
6030;BME280;3043;42.682;23.376;2023-02-16T03:28:36;96114.81;;;-0.66;100.00
6030;BME280;3043;42.682;23.376;2023-02-16T03:31:30;96122.06;;;-0.77;100.00
6030;BME280;3043;42.682;23.376;2023-02-16T03:33:57;96126.25;;;-0.77;100.00
6030;BME280;3043;42.682;23.376;2023-02-16T03:36:24;96119.63;;;-0.97;100.00
6030;BME280;3043;42.682;23.376;2023-02-16T03:38:52;96114.38;;;-1.02;100.00
6030;BME280;3043;42.682;23.376;2023-02-16T03:41:18;96111.50;;;-1.09;100.00
6030;BME280;3043;42.682;23.376;2023-02-16T03:43:43;96115.22;;;-1.01;100.00
6030;BME280;3043;42.682;23.376;2023-02-16T03:46:09;96120.84;;;-0.86;100.00
6030;BME280;3043;42.682;23.376;2023-02-16T03:48:34;96115.41;;;-1.19;100.00
6030;BME280;3043;42.682;23.376;2023-02-16T03:51:00;96121.09;;;-1.24;100.00
6030;BME280;3043;42.682;23.376;2023-02-16T03:53:25;96116.03;;;-1.24;100.00
6030;BME280;3043;42.682;23.376;2023-02-16T03:55:51;96119.19;;;-1.08;100.00
6030;BME280;3043;42.682;23.376;2023-02-16T03:58:21;96128.72;;;-1.02;100.00
6030;BME280;3043;42.682;23.376;2023-02-16T04:00:48;96120.72;;;-1.13;100.00
6030;BME280;3043;42.682;23.376;2023-02-16T04:03:14;96113.38;;;-1.05;100.00
6030;BME280;3043;42.682;23.376;2023-02-16T04:05:40;96118.91;;;-1.15;100.00
6030;BME280;3043;42.682;23.376;2023-02-16T04:08:06;96114.06;;;-1.31;100.00
6030;BME280;3043;42.682;23.376;2023-02-16T04:10:32;96115.25;;;-1.23;100.00
6030;BME280;3043;42.682;23.376;2023-02-16T04:12:58;96107.19;;;-1.12;100.00
6030;BME280;3043;42.682;23.376;2023-02-16T04:15:26;96106.22;;;-1.15;100.00
6030;BME280;3043;42.682;23.376;2023-02-16T04:17:53;96106.16;;;-1.17;100.00
6030;BME280;3043;42.682;23.376;2023-02-16T04:20:20;96100.34;;;-1.36;100.00
6030;BME280;3043;42.682;23.376;2023-02-16T04:22:47;96098.94;;;-1.28;100.00
6030;BME280;3043;42.682;23.376;2023-02-16T04:25:13;96097.13;;;-1.32;100.00
6030;BME280;3043;42.682;23.376;2023-02-16T04:27:40;96105.19;;;-1.42;100.00
6030;BME280;3043;42.682;23.376;2023-02-16T04:30:08;96096.06;;;-1.37;100.00
6030;BME280;3043;42.682;23.376;2023-02-16T04:32:35;96108.75;;;-1.37;100.00
6030;BME280;3043;42.682;23.376;2023-02-16T04:35:00;96106.13;;;-1.40;100.00
6030;BME280;3043;42.682;23.376;2023-02-16T04:37:26;96109.31;;;-1.66;100.00
6030;BME280;3043;42.682;23.376;2023-02-16T04:39:51;96104.34;;;-1.63;100.00
6030;BME280;3043;42.682;23.376;2023-02-16T04:42:17;96114.38;;;-1.66;100.00
6030;BME280;3043;42.682;23.376;2023-02-16T04:44:42;96109.22;;;-1.90;100.00
6030;BME280;3043;42.682;23.376;2023-02-16T04:47:08;96114.28;;;-2.11;100.00
6030;BME280;3043;42.682;23.376;2023-02-16T04:49:33;96114.28;;;-2.11;100.00
6030;BME280;3043;42.682;23.376;2023-02-16T04:51:58;96114.41;;;-2.08;100.00
6030;BME280;3043;42.682;23.376;2023-02-16T04:54:25;96113.06;;;-2.00;100.00
6030;BME280;3043;42.682;23.376;2023-02-16T04:56:52;96114.28;;;-2.11;100.00
6030;BME280;3043;42.682;23.376;2023-02-16T04:59:17;96120.97;;;-2.13;100.00
6030;BME280;3043;42.682;23.376;2023-02-16T05:01:43;96119.59;;;-2.05;100.00
6030;BME280;3043;42.682;23.376;2023-02-16T05:04:09;96129.16;;;-1.99;100.00
6030;BME280;3043;42.682;23.376;2023-02-16T05:06:36;96128.06;;;-1.84;100.00
6030;BME280;3043;42.682;23.376;2023-02-16T05:09:03;96127.41;;;-1.79;100.00
6030;BME280;3043;42.682;23.376;2023-02-16T05:11:28;96117.38;;;-1.76;100.00
6030;BME280;3043;42.682;23.376;2023-02-16T05:14:27;96119.69;;;-1.60;100.00
6030;BME280;3043;42.682;23.376;2023-02-16T05:17:18;96126.88;;;-1.50;100.00
6030;BME280;3043;42.682;23.376;2023-02-16T05:19:46;96127.25;;;-1.41;100.00
6030;BME280;3043;42.682;23.376;2023-02-16T05:22:13;96134.19;;;-1.58;100.00
6030;BME280;3043;42.682;23.376;2023-02-16T05:24:39;96128.50;;;-1.52;100.00
6030;BME280;3043;42.682;23.376;2023-02-16T05:27:06;96127.13;;;-1.44;100.00
6030;BME280;3043;42.682;23.376;2023-02-16T05:29:32;96133.81;;;-1.46;100.00
6030;BME280;3043;42.682;23.376;2023-02-16T05:31:58;96140.59;;;-1.45;100.00
6030;BME280;3043;42.682;23.376;2023-02-16T05:34:23;96140.84;;;-1.39;100.00
6030;BME280;3043;42.682;23.376;2023-02-16T05:36:49;96137.56;;;-1.37;100.00
6030;BME280;3043;42.682;23.376;2023-02-16T05:39:15;96145.38;;;-1.32;100.00
6030;BME280;3043;42.682;23.376;2023-02-16T05:41:40;96148.38;;;-1.20;100.00
6030;BME280;3043;42.682;23.376;2023-02-16T05:44:06;96145.31;;;-0.90;100.00
6030;BME280;3043;42.682;23.376;2023-02-16T05:46:35;96141.00;;;-0.45;100.00
6030;BME280;3043;42.682;23.376;2023-02-16T05:49:01;96139.34;;;-0.20;100.00
6030;BME280;3043;42.682;23.376;2023-02-16T05:51:27;96135.34;;;0.12;100.00
6030;BME280;3043;42.682;23.376;2023-02-16T05:53:53;96135.78;;;0.52;100.00
6030;BME280;3043;42.682;23.376;2023-02-16T05:56:19;96142.16;;;0.93;100.00
6030;BME280;3043;42.682;23.376;2023-02-16T05:58:45;96139.34;;;1.41;100.00
6030;BME280;3043;42.682;23.376;2023-02-16T06:01:11;96148.44;;;1.93;100.00
6030;BME280;3043;42.682;23.376;2023-02-16T06:03:36;96155.88;;;2.50;100.00
6030;BME280;3043;42.682;23.376;2023-02-16T06:06:03;96154.38;;;2.94;100.00
6030;BME280;3043;42.682;23.376;2023-02-16T06:08:30;96162.41;;;3.49;100.00
6030;BME280;3043;42.682;23.376;2023-02-16T06:10:56;96170.91;;;3.90;100.00
6030;BME280;3043;42.682;23.376;2023-02-16T06:13:22;96166.59;;;4.32;100.00
6030;BME280;3043;42.682;23.376;2023-02-16T06:15:51;96168.47;;;4.92;100.00
6030;BME280;3043;42.682;23.376;2023-02-16T06:18:16;96175.03;;;5.30;100.00
6030;BME280;3043;42.682;23.376;2023-02-16T06:20:42;96183.91;;;5.52;100.00
6030;BME280;3043;42.682;23.376;2023-02-16T06:23:10;96187.69;;;5.80;100.00
6030;BME280;3043;42.682;23.376;2023-02-16T06:25:36;96193.31;;;6.16;100.00
6030;BME280;3043;42.682;23.376;2023-02-16T06:28:02;96189.25;;;6.36;100.00
6030;BME280;3043;42.682;23.376;2023-02-16T06:30:27;96199.69;;;6.51;100.00
6030;BME280;3043;42.682;23.376;2023-02-16T06:32:53;96196.78;;;7.07;100.00
6030;BME280;3043;42.682;23.376;2023-02-16T06:35:18;96198.28;;;6.83;100.00
6030;BME280;3043;42.682;23.376;2023-02-16T06:37:44;96198.38;;;6.95;99.94
6030;BME280;3043;42.682;23.376;2023-02-16T06:40:10;96205.38;;;7.14;98.11
6030;BME280;3043;42.682;23.376;2023-02-16T06:42:39;96206.41;;;7.36;96.52
6030;BME280;3043;42.682;23.376;2023-02-16T06:45:04;96210.75;;;7.38;91.01
6030;BME280;3043;42.682;23.376;2023-02-16T06:47:30;96204.09;;;7.70;91.42
6030;BME280;3043;42.682;23.376;2023-02-16T06:49:55;96207.56;;;7.84;86.81
6030;BME280;3043;42.682;23.376;2023-02-16T06:52:21;96210.41;;;8.32;83.49
6030;BME280;3043;42.682;23.376;2023-02-16T06:54:46;96206.97;;;8.39;77.10
6030;BME280;3043;42.682;23.376;2023-02-16T06:57:12;96210.34;;;8.22;76.03
6030;BME280;3043;42.682;23.376;2023-02-16T06:59:38;96209.66;;;8.99;71.52
6030;BME280;3043;42.682;23.376;2023-02-16T07:02:03;96213.06;;;8.65;73.24
6030;BME280;3043;42.682;23.376;2023-02-16T07:04:29;96205.28;;;8.37;70.97
6030;BME280;3043;42.682;23.376;2023-02-16T07:06:55;96209.63;;;8.63;71.47
6030;BME280;3043;42.682;23.376;2023-02-16T07:09:21;96208.84;;;8.96;69.28
6030;BME280;3043;42.682;23.376;2023-02-16T07:11:46;96206.22;;;8.73;70.22
6030;BME280;3043;42.682;23.376;2023-02-16T07:14:12;96201.06;;;8.85;72.30
6030;BME280;3043;42.682;23.376;2023-02-16T07:16:37;96195.91;;;9.20;71.88
6030;BME280;3043;42.682;23.376;2023-02-16T07:19:03;96195.00;;;9.77;66.93
6030;BME280;3043;42.682;23.376;2023-02-16T07:21:29;96187.06;;;10.28;64.66
6030;BME280;3043;42.682;23.376;2023-02-16T07:23:55;96188.53;;;10.71;61.38
6030;BME280;3043;42.682;23.376;2023-02-16T07:26:20;96181.63;;;11.79;66.74
6030;BME280;3043;42.682;23.376;2023-02-16T07:28:46;96183.59;;;12.98;59.52
6030;BME280;3043;42.682;23.376;2023-02-16T07:31:14;96178.34;;;13.56;53.80
6030;BME280;3043;42.682;23.376;2023-02-16T07:33:40;96174.94;;;13.51;51.24
6030;BME280;3043;42.682;23.376;2023-02-16T07:36:06;96180.09;;;14.01;48.09
6030;BME280;3043;42.682;23.376;2023-02-16T07:38:32;96176.22;;;13.77;47.41
6030;BME280;3043;42.682;23.376;2023-02-16T07:40:58;96173.50;;;13.35;47.86
6030;BME280;3043;42.682;23.376;2023-02-16T07:43:23;96173.66;;;13.26;48.58
6030;BME280;3043;42.682;23.376;2023-02-16T07:45:49;96177.66;;;13.45;49.67
6030;BME280;3043;42.682;23.376;2023-02-16T07:48:14;96175.53;;;13.66;47.78
6030;BME280;3043;42.682;23.376;2023-02-16T07:50:40;96176.72;;;13.49;47.53
6030;BME280;3043;42.682;23.376;2023-02-16T07:53:05;96168.44;;;12.68;49.28
6030;BME280;3043;42.682;23.376;2023-02-16T07:55:32;96171.47;;;12.36;51.17
6030;BME280;3043;42.682;23.376;2023-02-16T07:57:58;96168.66;;;12.53;51.68
6030;BME280;3043;42.682;23.376;2023-02-16T08:00:24;96169.28;;;12.69;52.85
6030;BME280;3043;42.682;23.376;2023-02-16T08:02:50;96173.66;;;13.26;51.21
6030;BME280;3043;42.682;23.376;2023-02-16T08:05:16;96181.75;;;14.06;48.84
6030;BME280;3043;42.682;23.376;2023-02-16T08:07:41;96171.56;;;14.40;47.48
6030;BME280;3043;42.682;23.376;2023-02-16T08:10:08;96183.88;;;15.11;46.40
6030;BME280;3043;42.682;23.376;2023-02-16T08:12:33;96181.00;;;15.58;44.13
6030;BME280;3043;42.682;23.376;2023-02-16T08:14:59;96178.31;;;15.61;43.60
6030;BME280;3043;42.682;23.376;2023-02-16T08:17:24;96175.16;;;15.82;43.23
6030;BME280;3043;42.682;23.376;2023-02-16T08:19:50;96178.34;;;15.93;42.55
6030;BME280;3043;42.682;23.376;2023-02-16T08:22:16;96178.91;;;15.36;43.01
6030;BME280;3043;42.682;23.376;2023-02-16T08:24:42;96191.41;;;15.93;42.45
6030;BME280;3043;42.682;23.376;2023-02-16T08:27:08;96187.78;;;15.99;42.35
6030;BME280;3043;42.682;23.376;2023-02-16T08:29:34;96192.84;;;16.36;41.97
6030;BME280;3043;42.682;23.376;2023-02-16T08:32:00;96191.19;;;16.32;41.48
6030;BME280;3043;42.682;23.376;2023-02-16T08:34:32;96188.47;;;16.67;40.79
6030;BME280;3043;42.682;23.376;2023-02-16T08:36:57;96195.75;;;17.14;40.28
6030;BME280;3043;42.682;23.376;2023-02-16T08:39:26;96182.53;;;16.91;40.46
6030;BME280;3043;42.682;23.376;2023-02-16T08:41:52;96191.47;;;16.84;40.50
6030;BME280;3043;42.682;23.376;2023-02-16T08:44:19;96189.47;;;17.21;39.97
6030;BME280;3043;42.682;23.376;2023-02-16T08:46:48;96187.69;;;17.49;39.30
6030;BME280;3043;42.682;23.376;2023-02-16T08:49:16;96181.91;;;17.12;39.78
6030;BME280;3043;42.682;23.376;2023-02-16T08:51:45;96190.41;;;17.46;39.43
6030;BME280;3043;42.682;23.376;2023-02-16T08:54:19;96182.81;;;17.64;39.02
6030;BME280;3043;42.682;23.376;2023-02-16T08:56:45;96184.72;;;17.86;38.70
6030;BME280;3043;42.682;23.376;2023-02-16T08:59:17;96187.16;;;18.16;38.26
6030;BME280;3043;42.682;23.376;2023-02-16T09:01:42;96185.19;;;18.70;37.61
6030;BME280;3043;42.682;23.376;2023-02-16T09:04:09;96178.47;;;18.63;37.83
6030;BME280;3043;42.682;23.376;2023-02-16T09:06:40;96183.03;;;18.81;37.47
6030;BME280;3043;42.682;23.376;2023-02-16T09:09:06;96173.31;;;18.36;37.40
6030;BME280;3043;42.682;23.376;2023-02-16T09:11:33;96174.19;;;18.12;37.93
6030;BME280;3043;42.682;23.376;2023-02-16T09:13:58;96176.41;;;18.48;37.60
6030;BME280;3043;42.682;23.376;2023-02-16T09:16:24;96169.44;;;18.47;37.25
6030;BME280;3043;42.682;23.376;2023-02-16T09:18:53;96174.66;;;18.47;37.08
6030;BME280;3043;42.682;23.376;2023-02-16T09:21:23;96177.88;;;18.78;36.71
6030;BME280;3043;42.682;23.376;2023-02-16T09:23:53;96172.16;;;18.44;37.44
6030;BME280;3043;42.682;23.376;2023-02-16T09:26:21;96165.56;;;18.80;36.48
6030;BME280;3043;42.682;23.376;2023-02-16T09:28:47;96165.69;;;18.54;37.12
6030;BME280;3043;42.682;23.376;2023-02-16T09:31:15;96164.53;;;18.61;36.92
6030;BME280;3043;42.682;23.376;2023-02-16T09:33:44;96147.63;;;18.91;36.45
6030;BME280;3043;42.682;23.376;2023-02-16T09:36:11;96153.13;;;18.85;36.22
6030;BME280;3043;42.682;23.376;2023-02-16T09:38:38;96159.19;;;18.64;36.64
6030;BME280;3043;42.682;23.376;2023-02-16T09:46:42;96142.53;;;17.68;37.66
6030;BME280;3043;42.682;23.376;2023-02-16T09:49:24;96142.72;;;18.36;36.79
6030;BME280;3043;42.682;23.376;2023-02-16T09:52:03;96136.97;;;18.51;36.53
6030;BME280;3043;42.682;23.376;2023-02-16T09:54:41;96139.75;;;17.98;36.71
6030;BME280;3043;42.682;23.376;2023-02-16T09:57:57;96126.94;;;17.38;37.98
6030;BME280;3043;42.682;23.376;2023-02-16T10:00:48;96123.28;;;17.94;37.98
6030;BME280;3043;42.682;23.376;2023-02-16T10:08:53;96119.19;;;18.59;36.67
6030;BME280;3043;42.682;23.376;2023-02-16T10:11:28;96116.38;;;18.85;36.28
6030;BME280;3043;42.682;23.376;2023-02-16T10:14:26;96113.84;;;19.05;35.93
6030;BME280;3043;42.682;23.376;2023-02-16T10:17:05;96108.66;;;19.25;36.01
6030;BME280;3043;42.682;23.376;2023-02-16T10:19:43;96098.25;;;19.86;34.75
6030;BME280;3043;42.682;23.376;2023-02-16T10:22:22;96090.66;;;19.60;34.75
6030;BME280;3043;42.682;23.376;2023-02-16T10:27:27;96096.94;;;19.76;34.04
6030;BME280;3043;42.682;23.376;2023-02-16T10:29:57;96093.94;;;18.78;35.49
6030;BME280;3043;42.682;23.376;2023-02-16T10:32:33;96086.44;;;18.46;35.77
6030;BME280;3043;42.682;23.376;2023-02-16T10:35:14;96088.13;;;18.01;36.71
6030;BME280;3043;42.682;23.376;2023-02-16T10:38:06;96087.00;;;18.31;36.50
6030;BME280;3043;42.682;23.376;2023-02-16T10:46:09;96077.88;;;18.18;37.13
6030;BME280;3043;42.682;23.376;2023-02-16T10:48:37;96072.22;;;18.75;35.59
6030;BME280;3043;42.682;23.376;2023-02-16T10:51:07;96075.38;;;18.15;36.24
6030;BME280;3043;42.682;23.376;2023-02-16T10:53:43;96071.75;;;17.45;37.88
6030;BME280;3043;42.682;23.376;2023-02-16T10:56:38;96065.56;;;17.48;37.62
6030;BME280;3043;42.682;23.376;2023-02-16T10:59:11;96062.03;;;17.49;38.34
6030;BME280;3043;42.682;23.376;2023-02-16T11:01:43;96062.25;;;17.67;37.31
6030;BME280;3043;42.682;23.376;2023-02-16T11:07:04;96048.06;;;16.70;38.87
6030;BME280;3043;42.682;23.376;2023-02-16T11:09:31;96046.53;;;16.36;39.43
6030;BME280;3043;42.682;23.376;2023-02-16T11:11:58;96038.91;;;16.28;41.38
6030;BME280;3043;42.682;23.376;2023-02-16T11:14:26;96035.44;;;16.28;40.51
6030;BME280;3043;42.682;23.376;2023-02-16T11:17:09;96037.53;;;16.46;40.68
6030;BME280;3043;42.682;23.376;2023-02-16T11:19:45;96032.25;;;16.75;39.89
6030;BME280;3043;42.682;23.376;2023-02-16T11:22:38;96036.22;;;16.86;39.52
6030;BME280;3043;42.682;23.376;2023-02-16T11:25:25;96031.13;;;17.34;38.70
6030;BME280;3043;42.682;23.376;2023-02-16T11:27:57;96035.28;;;17.39;38.30
6030;BME280;3043;42.682;23.376;2023-02-16T11:30:41;96019.06;;;17.30;38.22
6030;BME280;3043;42.682;23.376;2023-02-16T11:33:26;96011.78;;;17.38;38.23
6030;BME280;3043;42.682;23.376;2023-02-16T11:35:53;96011.38;;;16.99;39.18
6030;BME280;3043;42.682;23.376;2023-02-16T11:38:26;96014.00;;;16.99;39.16
6030;BME280;3043;42.682;23.376;2023-02-16T11:40:52;96012.63;;;17.14;37.98
6030;BME280;3043;42.682;23.376;2023-02-16T11:43:18;96001.94;;;17.20;38.38
6030;BME280;3043;42.682;23.376;2023-02-16T11:45:56;96000.03;;;17.25;38.65
6030;BME280;3043;42.682;23.376;2023-02-16T11:48:31;96005.47;;;17.19;42.26
6030;BME280;3043;42.682;23.376;2023-02-16T11:51:00;96002.47;;;17.05;39.28
6030;BME280;3043;42.682;23.376;2023-02-16T11:53:30;95999.19;;;17.00;39.06
6030;BME280;3043;42.682;23.376;2023-02-16T11:56:17;96005.44;;;16.94;38.70
6030;BME280;3043;42.682;23.376;2023-02-16T11:59:02;95988.88;;;16.94;41.80
6030;BME280;3043;42.682;23.376;2023-02-16T12:15:28;95965.06;;;16.77;39.28
6030;BME280;3043;42.682;23.376;2023-02-16T12:24:01;95959.59;;;16.58;39.06
6030;BME280;3043;42.682;23.376;2023-02-16T12:27:21;95954.50;;;16.54;39.35
6030;BME280;3043;42.682;23.376;2023-02-16T12:32:46;95949.41;;;16.77;38.73
6030;BME280;3043;42.682;23.376;2023-02-16T12:40:50;95939.41;;;16.88;38.53
6030;BME280;3043;42.682;23.376;2023-02-16T12:43:34;95931.19;;;16.74;38.09
6030;BME280;3043;42.682;23.376;2023-02-16T12:46:12;95924.38;;;16.44;38.61
6030;BME280;3043;42.682;23.376;2023-02-16T12:48:58;95924.25;;;16.19;39.00
6030;BME280;3043;42.682;23.376;2023-02-16T12:51:49;95922.91;;;16.06;39.29
6030;BME280;3043;42.682;23.376;2023-02-16T12:56:59;95915.03;;;16.08;39.38
6030;BME280;3043;42.682;23.376;2023-02-16T13:02:03;95908.84;;;15.82;39.86
6030;BME280;3043;42.682;23.376;2023-02-16T13:04:39;95897.34;;;15.60;39.89
6030;BME280;3043;42.682;23.376;2023-02-16T13:07:21;95903.53;;;15.26;40.81
6030;BME280;3043;42.682;23.376;2023-02-16T13:09:57;95896.66;;;15.23;41.19
6030;BME280;3043;42.682;23.376;2023-02-16T13:15:20;95895.50;;;15.33;40.55
6030;BME280;3043;42.682;23.376;2023-02-16T13:18:19;95885.38;;;15.23;41.10
6030;BME280;3043;42.682;23.376;2023-02-16T13:20:49;95890.50;;;15.26;40.78
6030;BME280;3043;42.682;23.376;2023-02-16T13:23:44;95885.03;;;15.04;41.62
6030;BME280;3043;42.682;23.376;2023-02-16T13:29:14;95885.88;;;15.35;41.03
6030;BME280;3043;42.682;23.376;2023-02-16T13:34:58;95870.69;;;15.20;40.93
6030;BME280;3043;42.682;23.376;2023-02-16T13:43:29;95859.13;;;14.98;41.47
6030;BME280;3043;42.682;23.376;2023-02-16T13:45:48;95869.81;;;14.89;41.92
6030;BME280;3043;42.682;23.376;2023-02-16T13:50:56;95861.03;;;14.93;41.51
6030;BME280;3043;42.682;23.376;2023-02-16T13:53:22;95866.63;;;14.78;42.04
6030;BME280;3043;42.682;23.376;2023-02-16T13:55:48;95868.53;;;14.73;41.98
6030;BME280;3043;42.682;23.376;2023-02-16T14:05:43;95857.91;;;14.12;43.09
6030;BME280;3043;42.682;23.376;2023-02-16T14:08:28;95859.16;;;13.97;43.58
6030;BME280;3043;42.682;23.376;2023-02-16T14:13:32;95865.06;;;13.66;44.18
6030;BME280;3043;42.682;23.376;2023-02-16T14:23:57;95856.97;;;13.41;45.04
6030;BME280;3043;42.682;23.376;2023-02-16T14:26:23;95852.28;;;13.57;45.03
6030;BME280;3043;42.682;23.376;2023-02-16T14:39:41;95858.09;;;13.30;45.95
6030;BME280;3043;42.682;23.376;2023-02-16T14:42:13;95852.63;;;13.42;46.01
6030;BME280;3043;42.682;23.376;2023-02-16T14:45:04;95853.28;;;13.51;45.33
6030;BME280;3043;42.682;23.376;2023-02-16T14:48:12;95842.69;;;13.59;45.43
6030;BME280;3043;42.682;23.376;2023-02-16T14:56:21;95843.13;;;13.41;45.80
6030;BME280;3043;42.682;23.376;2023-02-16T14:59:02;95844.31;;;13.25;45.95
6030;BME280;3043;42.682;23.376;2023-02-16T15:01:39;95830.31;;;13.32;45.85
6030;BME280;3043;42.682;23.376;2023-02-16T15:04:05;95839.69;;;13.39;45.79
6030;BME280;3043;42.682;23.376;2023-02-16T15:06:39;95841.63;;;13.29;46.16
6030;BME280;3043;42.682;23.376;2023-02-16T15:09:19;95842.44;;;13.31;45.99
6030;BME280;3043;42.682;23.376;2023-02-16T15:11:55;95833.69;;;13.37;46.25
6030;BME280;3043;42.682;23.376;2023-02-16T15:14:46;95834.06;;;13.19;46.83
6030;BME280;3043;42.682;23.376;2023-02-16T15:20:00;95832.59;;;13.06;47.67
6030;BME280;3043;42.682;23.376;2023-02-16T15:22:28;95841.31;;;13.05;47.75
6030;BME280;3043;42.682;23.376;2023-02-16T15:25:02;95833.59;;;13.00;47.80
6030;BME280;3043;42.682;23.376;2023-02-16T15:27:28;95832.75;;;13.00;48.19
6030;BME280;3043;42.682;23.376;2023-02-16T15:30:04;95836.25;;;12.96;48.24
6030;BME280;3043;42.682;23.376;2023-02-16T15:32:31;95833.00;;;12.85;48.66
6030;BME280;3043;42.682;23.376;2023-02-16T15:34:57;95834.97;;;12.74;49.23
6030;BME280;3043;42.682;23.376;2023-02-16T15:37:29;95835.19;;;12.62;49.40
6030;BME280;3043;42.682;23.376;2023-02-16T15:40:15;95835.50;;;12.46;50.33
6030;BME280;3043;42.682;23.376;2023-02-16T15:42:45;95830.69;;;12.25;51.46
6030;BME280;3043;42.682;23.376;2023-02-16T15:45:32;95832.81;;;12.02;52.81
6030;BME280;3043;42.682;23.376;2023-02-16T15:50:47;95830.78;;;11.69;60.18